KACT

Waco Regional Airport

Waco, Texas, USA
KACT 220305Z 2203/2224 13011KT P6SM VCSH BKN035 FM220900 16007KT P6SM VCSH OVC012 FM221500 31010KT P6SM SHRA OVC015
Issued Valid From Valid To
Sep-22 @ 03:05 UTC
(24 minutes ago)
Sep-22 @ 03:00 UTC
(29 minutes ago)
Sep-23 @ 00:00 UTC
(in 21 hours)
to
to
to
KACT 220305Z 2203/2224 13011KT P6SM VCSH BKN035 FM220900 16007KT P6SM VCSH OVC012 FM221500 31010KT P6SM SHRA OVC015
Issued Sep-22 @ 03:05 UTC
(24 minutes ago)
Valid From Sep-22 @ 03:00 UTC
(29 minutes ago)
Valid To Sep-23 @ 00:00 UTC
(in 21 hours)
-
-
-